sensor_id;sensor_type;location;lat;lon;timestamp;P1;durP1;ratioP1;P2;durP2;ratioP2
8317;SDS011;4196;48.926;8.964;2022-11-15T00:01:41;7.23;;;4.17;;
8317;SDS011;4196;48.926;8.964;2022-11-15T00:04:46;12.20;;;5.37;;
8317;SDS011;4196;48.926;8.964;2022-11-15T00:07:51;7.37;;;4.63;;
8317;SDS011;4196;48.926;8.964;2022-11-15T00:11:01;8.33;;;4.40;;
8317;SDS011;4196;48.926;8.964;2022-11-15T00:14:07;7.33;;;4.63;;
8317;SDS011;4196;48.926;8.964;2022-11-15T00:17:12;8.13;;;3.93;;
8317;SDS011;4196;48.926;8.964;2022-11-15T00:20:17;6.57;;;4.30;;
8317;SDS011;4196;48.926;8.964;2022-11-15T00:23:23;5.60;;;4.17;;
8317;SDS011;4196;48.926;8.964;2022-11-15T00:26:27;6.03;;;4.43;;
8317;SDS011;4196;48.926;8.964;2022-11-15T00:29:33;7.67;;;4.43;;
8317;SDS011;4196;48.926;8.964;2022-11-15T00:32:38;6.87;;;4.47;;
8317;SDS011;4196;48.926;8.964;2022-11-15T00:35:43;7.80;;;4.70;;
8317;SDS011;4196;48.926;8.964;2022-11-15T00:38:48;5.73;;;4.30;;
8317;SDS011;4196;48.926;8.964;2022-11-15T00:41:53;5.83;;;4.00;;
8317;SDS011;4196;48.926;8.964;2022-11-15T00:44:58;6.33;;;4.50;;
8317;SDS011;4196;48.926;8.964;2022-11-15T00:48:07;5.10;;;3.67;;
8317;SDS011;4196;48.926;8.964;2022-11-15T00:51:12;7.50;;;4.87;;
8317;SDS011;4196;48.926;8.964;2022-11-15T00:54:17;5.13;;;3.90;;
8317;SDS011;4196;48.926;8.964;2022-11-15T00:57:22;6.20;;;3.90;;
8317;SDS011;4196;48.926;8.964;2022-11-15T01:00:27;5.83;;;4.23;;
8317;SDS011;4196;48.926;8.964;2022-11-15T01:03:33;3.93;;;3.30;;
8317;SDS011;4196;48.926;8.964;2022-11-15T01:06:39;7.87;;;4.30;;
8317;SDS011;4196;48.926;8.964;2022-11-15T01:09:44;5.17;;;3.70;;
8317;SDS011;4196;48.926;8.964;2022-11-15T01:12:49;5.40;;;3.43;;
8317;SDS011;4196;48.926;8.964;2022-11-15T01:15:54;5.50;;;3.70;;
8317;SDS011;4196;48.926;8.964;2022-11-15T01:18:59;6.90;;;4.47;;
8317;SDS011;4196;48.926;8.964;2022-11-15T01:22:04;5.57;;;4.10;;
8317;SDS011;4196;48.926;8.964;2022-11-15T01:25:09;8.87;;;5.17;;
8317;SDS011;4196;48.926;8.964;2022-11-15T01:28:15;6.40;;;3.97;;
8317;SDS011;4196;48.926;8.964;2022-11-15T01:31:20;8.00;;;4.00;;
8317;SDS011;4196;48.926;8.964;2022-11-15T01:34:26;9.17;;;4.77;;
8317;SDS011;4196;48.926;8.964;2022-11-15T01:37:31;9.67;;;4.87;;
8317;SDS011;4196;48.926;8.964;2022-11-15T01:40:37;9.43;;;5.73;;
8317;SDS011;4196;48.926;8.964;2022-11-15T01:43:42;10.93;;;4.97;;
8317;SDS011;4196;48.926;8.964;2022-11-15T01:46:47;7.17;;;4.67;;
8317;SDS011;4196;48.926;8.964;2022-11-15T01:53:01;8.90;;;4.67;;
8317;SDS011;4196;48.926;8.964;2022-11-15T01:56:07;8.50;;;5.30;;
8317;SDS011;4196;48.926;8.964;2022-11-15T01:59:16;7.20;;;4.80;;
8317;SDS011;4196;48.926;8.964;2022-11-15T02:02:22;7.13;;;4.53;;
8317;SDS011;4196;48.926;8.964;2022-11-15T02:05:31;6.27;;;4.40;;
8317;SDS011;4196;48.926;8.964;2022-11-15T02:08:37;7.90;;;4.50;;
8317;SDS011;4196;48.926;8.964;2022-11-15T02:11:43;7.00;;;4.53;;
8317;SDS011;4196;48.926;8.964;2022-11-15T02:14:51;7.57;;;4.27;;
8317;SDS011;4196;48.926;8.964;2022-11-15T02:21:27;7.10;;;4.17;;
8317;SDS011;4196;48.926;8.964;2022-11-15T02:28:25;6.60;;;3.53;;
8317;SDS011;4196;48.926;8.964;2022-11-15T02:31:45;6.53;;;3.93;;
8317;SDS011;4196;48.926;8.964;2022-11-15T02:35:02;8.00;;;3.67;;
8317;SDS011;4196;48.926;8.964;2022-11-15T02:38:29;5.27;;;3.83;;
8317;SDS011;4196;48.926;8.964;2022-11-15T02:41:47;5.47;;;3.23;;
8317;SDS011;4196;48.926;8.964;2022-11-15T02:44:58;4.67;;;3.30;;
8317;SDS011;4196;48.926;8.964;2022-11-15T02:48:10;4.93;;;2.87;;
8317;SDS011;4196;48.926;8.964;2022-11-15T02:51:20;4.57;;;2.77;;
8317;SDS011;4196;48.926;8.964;2022-11-15T02:54:28;4.93;;;3.33;;
8317;SDS011;4196;48.926;8.964;2022-11-15T02:57:45;3.13;;;2.83;;
8317;SDS011;4196;48.926;8.964;2022-11-15T03:01:15;4.00;;;2.60;;
8317;SDS011;4196;48.926;8.964;2022-11-15T03:07:39;3.80;;;2.93;;
8317;SDS011;4196;48.926;8.964;2022-11-15T03:10:56;3.93;;;2.77;;
8317;SDS011;4196;48.926;8.964;2022-11-15T03:14:28;3.57;;;2.87;;
8317;SDS011;4196;48.926;8.964;2022-11-15T03:17:38;6.17;;;4.87;;
8317;SDS011;4196;48.926;8.964;2022-11-15T03:20:55;5.50;;;3.60;;
8317;SDS011;4196;48.926;8.964;2022-11-15T03:24:05;5.37;;;3.37;;
8317;SDS011;4196;48.926;8.964;2022-11-15T03:27:13;3.60;;;3.17;;
8317;SDS011;4196;48.926;8.964;2022-11-15T03:30:23;4.47;;;3.30;;
8317;SDS011;4196;48.926;8.964;2022-11-15T03:33:28;5.17;;;3.47;;
8317;SDS011;4196;48.926;8.964;2022-11-15T03:36:35;7.33;;;4.03;;
8317;SDS011;4196;48.926;8.964;2022-11-15T03:39:42;6.60;;;4.07;;
8317;SDS011;4196;48.926;8.964;2022-11-15T03:42:49;5.27;;;3.70;;
8317;SDS011;4196;48.926;8.964;2022-11-15T03:46:20;4.63;;;3.30;;
8317;SDS011;4196;48.926;8.964;2022-11-15T03:49:32;6.83;;;4.00;;
8317;SDS011;4196;48.926;8.964;2022-11-15T03:52:39;4.87;;;3.50;;
8317;SDS011;4196;48.926;8.964;2022-11-15T03:55:46;5.67;;;3.93;;
8317;SDS011;4196;48.926;8.964;2022-11-15T03:58:52;4.23;;;3.50;;
8317;SDS011;4196;48.926;8.964;2022-11-15T04:01:56;4.97;;;3.70;;
8317;SDS011;4196;48.926;8.964;2022-11-15T04:05:01;4.97;;;3.37;;
8317;SDS011;4196;48.926;8.964;2022-11-15T04:08:06;5.93;;;3.47;;
8317;SDS011;4196;48.926;8.964;2022-11-15T04:11:12;5.70;;;3.40;;
8317;SDS011;4196;48.926;8.964;2022-11-15T04:14:17;3.63;;;2.97;;
8317;SDS011;4196;48.926;8.964;2022-11-15T04:17:22;5.93;;;3.40;;
8317;SDS011;4196;48.926;8.964;2022-11-15T04:20:28;5.57;;;4.10;;
8317;SDS011;4196;48.926;8.964;2022-11-15T04:23:53;5.03;;;3.30;;
8317;SDS011;4196;48.926;8.964;2022-11-15T04:27:16;4.73;;;3.10;;
8317;SDS011;4196;48.926;8.964;2022-11-15T04:30:21;6.20;;;4.47;;
8317;SDS011;4196;48.926;8.964;2022-11-15T04:33:26;5.27;;;3.47;;
8317;SDS011;4196;48.926;8.964;2022-11-15T04:36:31;7.60;;;4.37;;
8317;SDS011;4196;48.926;8.964;2022-11-15T04:39:55;5.50;;;3.80;;
8317;SDS011;4196;48.926;8.964;2022-11-15T04:43:00;5.13;;;3.87;;
8317;SDS011;4196;48.926;8.964;2022-11-15T04:46:08;4.97;;;3.73;;
8317;SDS011;4196;48.926;8.964;2022-11-15T04:49:13;6.43;;;4.10;;
8317;SDS011;4196;48.926;8.964;2022-11-15T04:52:18;7.83;;;4.37;;
8317;SDS011;4196;48.926;8.964;2022-11-15T04:55:23;7.00;;;4.87;;
8317;SDS011;4196;48.926;8.964;2022-11-15T04:58:28;4.93;;;3.67;;
8317;SDS011;4196;48.926;8.964;2022-11-15T05:01:33;3.93;;;3.00;;
8317;SDS011;4196;48.926;8.964;2022-11-15T05:04:38;7.37;;;4.70;;
8317;SDS011;4196;48.926;8.964;2022-11-15T05:07:44;5.23;;;3.37;;
8317;SDS011;4196;48.926;8.964;2022-11-15T05:10:49;4.03;;;3.63;;
8317;SDS011;4196;48.926;8.964;2022-11-15T05:13:54;5.93;;;3.70;;
8317;SDS011;4196;48.926;8.964;2022-11-15T05:16:59;5.90;;;4.13;;
8317;SDS011;4196;48.926;8.964;2022-11-15T05:20:05;4.00;;;3.60;;
8317;SDS011;4196;48.926;8.964;2022-11-15T05:23:10;6.07;;;3.63;;
8317;SDS011;4196;48.926;8.964;2022-11-15T05:26:16;5.67;;;3.70;;
8317;SDS011;4196;48.926;8.964;2022-11-15T05:29:22;8.53;;;6.00;;
8317;SDS011;4196;48.926;8.964;2022-11-15T05:32:28;8.40;;;4.10;;
8317;SDS011;4196;48.926;8.964;2022-11-15T05:35:42;7.30;;;4.83;;
8317;SDS011;4196;48.926;8.964;2022-11-15T05:38:53;5.10;;;3.70;;
8317;SDS011;4196;48.926;8.964;2022-11-15T05:42:06;4.83;;;3.53;;
8317;SDS011;4196;48.926;8.964;2022-11-15T05:45:14;4.23;;;3.30;;
8317;SDS011;4196;48.926;8.964;2022-11-15T05:48:25;4.03;;;3.30;;
8317;SDS011;4196;48.926;8.964;2022-11-15T05:51:30;4.40;;;2.77;;
8317;SDS011;4196;48.926;8.964;2022-11-15T05:54:35;8.33;;;3.33;;
8317;SDS011;4196;48.926;8.964;2022-11-15T05:57:42;3.90;;;2.90;;
8317;SDS011;4196;48.926;8.964;2022-11-15T06:00:47;4.93;;;3.43;;
8317;SDS011;4196;48.926;8.964;2022-11-15T06:03:53;4.43;;;3.40;;
8317;SDS011;4196;48.926;8.964;2022-11-15T06:06:58;6.70;;;3.00;;
8317;SDS011;4196;48.926;8.964;2022-11-15T06:10:04;5.10;;;3.47;;
8317;SDS011;4196;48.926;8.964;2022-11-15T06:13:09;5.27;;;3.10;;
8317;SDS011;4196;48.926;8.964;2022-11-15T06:16:15;4.50;;;3.00;;
8317;SDS011;4196;48.926;8.964;2022-11-15T06:19:20;6.07;;;3.93;;
8317;SDS011;4196;48.926;8.964;2022-11-15T06:22:25;4.60;;;3.03;;
8317;SDS011;4196;48.926;8.964;2022-11-15T06:25:30;6.73;;;3.10;;
8317;SDS011;4196;48.926;8.964;2022-11-15T06:28:36;5.50;;;3.60;;
8317;SDS011;4196;48.926;8.964;2022-11-15T06:31:41;7.27;;;3.40;;
8317;SDS011;4196;48.926;8.964;2022-11-15T06:34:46;6.37;;;3.10;;
8317;SDS011;4196;48.926;8.964;2022-11-15T06:37:52;5.30;;;3.57;;
8317;SDS011;4196;48.926;8.964;2022-11-15T06:41:02;6.77;;;3.10;;
8317;SDS011;4196;48.926;8.964;2022-11-15T06:44:11;6.93;;;4.30;;
8317;SDS011;4196;48.926;8.964;2022-11-15T06:47:16;8.50;;;5.10;;
8317;SDS011;4196;48.926;8.964;2022-11-15T06:50:21;8.03;;;4.33;;
8317;SDS011;4196;48.926;8.964;2022-11-15T06:53:26;5.33;;;3.90;;
8317;SDS011;4196;48.926;8.964;2022-11-15T06:56:34;9.97;;;3.67;;
8317;SDS011;4196;48.926;8.964;2022-11-15T06:59:38;6.80;;;3.60;;
8317;SDS011;4196;48.926;8.964;2022-11-15T07:02:44;6.60;;;4.03;;
8317;SDS011;4196;48.926;8.964;2022-11-15T07:05:51;5.37;;;3.87;;
8317;SDS011;4196;48.926;8.964;2022-11-15T07:08:57;7.63;;;4.23;;
8317;SDS011;4196;48.926;8.964;2022-11-15T07:12:02;6.57;;;4.00;;
8317;SDS011;4196;48.926;8.964;2022-11-15T07:15:11;7.33;;;5.00;;
8317;SDS011;4196;48.926;8.964;2022-11-15T07:18:17;7.87;;;4.73;;
8317;SDS011;4196;48.926;8.964;2022-11-15T07:21:22;6.53;;;4.00;;
8317;SDS011;4196;48.926;8.964;2022-11-15T07:24:31;8.40;;;4.90;;
8317;SDS011;4196;48.926;8.964;2022-11-15T07:27:36;8.20;;;4.57;;
8317;SDS011;4196;48.926;8.964;2022-11-15T07:30:42;9.50;;;4.13;;
8317;SDS011;4196;48.926;8.964;2022-11-15T07:33:49;8.13;;;4.80;;
8317;SDS011;4196;48.926;8.964;2022-11-15T07:36:54;8.23;;;3.80;;
8317;SDS011;4196;48.926;8.964;2022-11-15T07:39:59;8.63;;;4.47;;
8317;SDS011;4196;48.926;8.964;2022-11-15T07:43:06;7.47;;;5.13;;
8317;SDS011;4196;48.926;8.964;2022-11-15T07:46:12;7.73;;;4.93;;
8317;SDS011;4196;48.926;8.964;2022-11-15T07:49:17;6.63;;;4.23;;
8317;SDS011;4196;48.926;8.964;2022-11-15T07:52:22;5.07;;;4.07;;
8317;SDS011;4196;48.926;8.964;2022-11-15T07:55:27;5.40;;;3.40;;
8317;SDS011;4196;48.926;8.964;2022-11-15T07:58:34;6.80;;;3.80;;
8317;SDS011;4196;48.926;8.964;2022-11-15T08:01:39;4.60;;;3.20;;
8317;SDS011;4196;48.926;8.964;2022-11-15T08:04:45;4.40;;;3.17;;
8317;SDS011;4196;48.926;8.964;2022-11-15T08:07:50;4.27;;;2.90;;
8317;SDS011;4196;48.926;8.964;2022-11-15T08:10:57;5.80;;;3.87;;
8317;SDS011;4196;48.926;8.964;2022-11-15T08:14:02;5.87;;;3.77;;
8317;SDS011;4196;48.926;8.964;2022-11-15T08:17:07;5.77;;;4.07;;
8317;SDS011;4196;48.926;8.964;2022-11-15T08:20:13;5.53;;;4.13;;
8317;SDS011;4196;48.926;8.964;2022-11-15T08:23:18;5.67;;;3.50;;
8317;SDS011;4196;48.926;8.964;2022-11-15T08:26:23;4.40;;;3.23;;
8317;SDS011;4196;48.926;8.964;2022-11-15T08:29:31;5.57;;;4.10;;
8317;SDS011;4196;48.926;8.964;2022-11-15T08:32:36;5.73;;;3.90;;
8317;SDS011;4196;48.926;8.964;2022-11-15T08:35:41;4.53;;;3.53;;
8317;SDS011;4196;48.926;8.964;2022-11-15T08:38:48;5.90;;;3.30;;
8317;SDS011;4196;48.926;8.964;2022-11-15T08:41:53;4.00;;;3.03;;
8317;SDS011;4196;48.926;8.964;2022-11-15T08:44:58;7.67;;;3.40;;
8317;SDS011;4196;48.926;8.964;2022-11-15T08:48:03;7.37;;;3.50;;
8317;SDS011;4196;48.926;8.964;2022-11-15T08:51:09;7.00;;;3.97;;
8317;SDS011;4196;48.926;8.964;2022-11-15T08:54:14;4.40;;;3.50;;
8317;SDS011;4196;48.926;8.964;2022-11-15T08:57:19;5.33;;;3.73;;
8317;SDS011;4196;48.926;8.964;2022-11-15T09:00:24;5.60;;;3.83;;
8317;SDS011;4196;48.926;8.964;2022-11-15T09:03:30;5.77;;;3.70;;
8317;SDS011;4196;48.926;8.964;2022-11-15T09:06:35;5.67;;;3.77;;
8317;SDS011;4196;48.926;8.964;2022-11-15T09:09:46;7.97;;;3.80;;
8317;SDS011;4196;48.926;8.964;2022-11-15T09:12:51;6.27;;;3.73;;
8317;SDS011;4196;48.926;8.964;2022-11-15T09:15:57;4.67;;;3.53;;
8317;SDS011;4196;48.926;8.964;2022-11-15T09:19:03;7.40;;;3.37;;
8317;SDS011;4196;48.926;8.964;2022-11-15T09:22:15;5.17;;;3.20;;
8317;SDS011;4196;48.926;8.964;2022-11-15T09:25:20;4.53;;;3.43;;
8317;SDS011;4196;48.926;8.964;2022-11-15T09:28:26;4.40;;;3.33;;
8317;SDS011;4196;48.926;8.964;2022-11-15T09:31:31;6.77;;;3.83;;
8317;SDS011;4196;48.926;8.964;2022-11-15T09:34:37;6.37;;;3.57;;
8317;SDS011;4196;48.926;8.964;2022-11-15T09:37:42;5.40;;;3.43;;
8317;SDS011;4196;48.926;8.964;2022-11-15T09:40:51;4.47;;;3.07;;
8317;SDS011;4196;48.926;8.964;2022-11-15T09:50:42;4.90;;;3.10;;
8317;SDS011;4196;48.926;8.964;2022-11-15T09:56:51;6.23;;;2.90;;
8317;SDS011;4196;48.926;8.964;2022-11-15T10:03:26;5.07;;;2.70;;
8317;SDS011;4196;48.926;8.964;2022-11-15T10:06:24;4.47;;;2.83;;
8317;SDS011;4196;48.926;8.964;2022-11-15T10:12:20;5.30;;;3.60;;
8317;SDS011;4196;48.926;8.964;2022-11-15T10:15:09;7.03;;;3.10;;
8317;SDS011;4196;48.926;8.964;2022-11-15T10:21:19;6.80;;;3.50;;
8317;SDS011;4196;48.926;8.964;2022-11-15T10:24:19;5.30;;;2.70;;
8317;SDS011;4196;48.926;8.964;2022-11-15T10:27:15;4.47;;;2.90;;
8317;SDS011;4196;48.926;8.964;2022-11-15T10:30:04;7.57;;;3.10;;
8317;SDS011;4196;48.926;8.964;2022-11-15T10:33:08;6.10;;;3.17;;
8317;SDS011;4196;48.926;8.964;2022-11-15T10:38:55;5.97;;;4.13;;
8317;SDS011;4196;48.926;8.964;2022-11-15T10:41:43;5.50;;;3.40;;
8317;SDS011;4196;48.926;8.964;2022-11-15T10:44:29;12.17;;;3.97;;
8317;SDS011;4196;48.926;8.964;2022-11-15T10:53:48;5.13;;;3.63;;
8317;SDS011;4196;48.926;8.964;2022-11-15T10:56:35;6.73;;;3.47;;
8317;SDS011;4196;48.926;8.964;2022-11-15T10:59:26;4.90;;;3.10;;
8317;SDS011;4196;48.926;8.964;2022-11-15T11:02:34;7.23;;;3.60;;
8317;SDS011;4196;48.926;8.964;2022-11-15T11:05:36;4.97;;;3.23;;
8317;SDS011;4196;48.926;8.964;2022-11-15T11:08:28;6.93;;;3.67;;
8317;SDS011;4196;48.926;8.964;2022-11-15T11:11:14;8.87;;;3.83;;
8317;SDS011;4196;48.926;8.964;2022-11-15T11:14:41;5.07;;;4.20;;
8317;SDS011;4196;48.926;8.964;2022-11-15T11:17:27;8.00;;;3.60;;
8317;SDS011;4196;48.926;8.964;2022-11-15T11:27:08;7.90;;;4.13;;
8317;SDS011;4196;48.926;8.964;2022-11-15T11:39:17;6.13;;;3.47;;
8317;SDS011;4196;48.926;8.964;2022-11-15T11:48:23;4.33;;;3.13;;
8317;SDS011;4196;48.926;8.964;2022-11-15T11:51:26;6.00;;;3.50;;
8317;SDS011;4196;48.926;8.964;2022-11-15T11:54:22;6.77;;;3.40;;
8317;SDS011;4196;48.926;8.964;2022-11-15T11:57:32;8.70;;;4.47;;
8317;SDS011;4196;48.926;8.964;2022-11-15T12:00:26;7.37;;;3.10;;
8317;SDS011;4196;48.926;8.964;2022-11-15T12:09:21;4.77;;;2.53;;
8317;SDS011;4196;48.926;8.964;2022-11-15T12:12:20;6.03;;;2.70;;
8317;SDS011;4196;48.926;8.964;2022-11-15T12:18:01;4.13;;;2.83;;
8317;SDS011;4196;48.926;8.964;2022-11-15T12:20:53;5.40;;;2.20;;
8317;SDS011;4196;48.926;8.964;2022-11-15T12:24:02;4.67;;;2.20;;
8317;SDS011;4196;48.926;8.964;2022-11-15T12:27:03;5.13;;;2.57;;
8317;SDS011;4196;48.926;8.964;2022-11-15T12:30:15;2.13;;;1.90;;
8317;SDS011;4196;48.926;8.964;2022-11-15T12:33:04;4.93;;;3.97;;
8317;SDS011;4196;48.926;8.964;2022-11-15T12:35:57;11.17;;;4.40;;
8317;SDS011;4196;48.926;8.964;2022-11-15T12:47:35;6.57;;;4.43;;
8317;SDS011;4196;48.926;8.964;2022-11-15T12:53:40;7.17;;;4.20;;
8317;SDS011;4196;48.926;8.964;2022-11-15T12:56:26;7.40;;;3.67;;
8317;SDS011;4196;48.926;8.964;2022-11-15T12:59:38;7.60;;;4.17;;
8317;SDS011;4196;48.926;8.964;2022-11-15T13:02:42;6.40;;;4.13;;
8317;SDS011;4196;48.926;8.964;2022-11-15T13:08:37;3.77;;;2.80;;
8317;SDS011;4196;48.926;8.964;2022-11-15T13:11:46;6.50;;;2.77;;
8317;SDS011;4196;48.926;8.964;2022-11-15T13:17:34;3.40;;;3.10;;
8317;SDS011;4196;48.926;8.964;2022-11-15T13:20:28;5.97;;;3.20;;
8317;SDS011;4196;48.926;8.964;2022-11-15T13:23:16;8.30;;;3.13;;
8317;SDS011;4196;48.926;8.964;2022-11-15T13:28:52;5.63;;;2.77;;
8317;SDS011;4196;48.926;8.964;2022-11-15T13:31:42;4.77;;;2.73;;
8317;SDS011;4196;48.926;8.964;2022-11-15T13:34:32;4.37;;;2.40;;
8317;SDS011;4196;48.926;8.964;2022-11-15T13:37:37;7.67;;;2.50;;
8317;SDS011;4196;48.926;8.964;2022-11-15T13:40:26;4.57;;;2.20;;
8317;SDS011;4196;48.926;8.964;2022-11-15T13:46:22;7.03;;;2.33;;
8317;SDS011;4196;48.926;8.964;2022-11-15T13:49:11;3.50;;;2.57;;
8317;SDS011;4196;48.926;8.964;2022-11-15T13:51:57;5.97;;;2.30;;
8317;SDS011;4196;48.926;8.964;2022-11-15T13:58:00;2.70;;;1.90;;
8317;SDS011;4196;48.926;8.964;2022-11-15T14:00:59;7.20;;;2.20;;
8317;SDS011;4196;48.926;8.964;2022-11-15T14:03:55;3.63;;;2.63;;
8317;SDS011;4196;48.926;8.964;2022-11-15T14:06:45;3.47;;;2.67;;
8317;SDS011;4196;48.926;8.964;2022-11-15T14:09:43;3.53;;;2.37;;
8317;SDS011;4196;48.926;8.964;2022-11-15T14:12:33;5.37;;;3.57;;
8317;SDS011;4196;48.926;8.964;2022-11-15T14:21:26;4.67;;;3.23;;
8317;SDS011;4196;48.926;8.964;2022-11-15T14:24:20;4.50;;;2.90;;
8317;SDS011;4196;48.926;8.964;2022-11-15T14:27:17;1.80;;;1.60;;
8317;SDS011;4196;48.926;8.964;2022-11-15T14:30:15;5.73;;;1.80;;
8317;SDS011;4196;48.926;8.964;2022-11-15T14:33:11;5.40;;;1.60;;
8317;SDS011;4196;48.926;8.964;2022-11-15T14:36:13;2.00;;;1.80;;
8317;SDS011;4196;48.926;8.964;2022-11-15T14:39:01;4.80;;;2.07;;
8317;SDS011;4196;48.926;8.964;2022-11-15T14:41:51;3.63;;;1.83;;
8317;SDS011;4196;48.926;8.964;2022-11-15T14:44:37;2.73;;;1.70;;
8317;SDS011;4196;48.926;8.964;2022-11-15T14:47:30;4.47;;;2.20;;
8317;SDS011;4196;48.926;8.964;2022-11-15T14:50:18;5.17;;;2.30;;
8317;SDS011;4196;48.926;8.964;2022-11-15T14:53:06;5.93;;;2.53;;
8317;SDS011;4196;48.926;8.964;2022-11-15T14:55:56;4.83;;;2.50;;
8317;SDS011;4196;48.926;8.964;2022-11-15T15:03:15;17.63;;;6.10;;
8317;SDS011;4196;48.926;8.964;2022-11-15T15:06:03;5.33;;;3.13;;
8317;SDS011;4196;48.926;8.964;2022-11-15T15:08:49;5.50;;;2.47;;
8317;SDS011;4196;48.926;8.964;2022-11-15T15:11:37;6.43;;;3.27;;
8317;SDS011;4196;48.926;8.964;2022-11-15T15:14:23;6.13;;;3.23;;
8317;SDS011;4196;48.926;8.964;2022-11-15T15:17:09;5.40;;;2.67;;
8317;SDS011;4196;48.926;8.964;2022-11-15T15:19:56;5.30;;;2.40;;
8317;SDS011;4196;48.926;8.964;2022-11-15T15:22:42;3.70;;;2.40;;
8317;SDS011;4196;48.926;8.964;2022-11-15T15:25:33;5.57;;;3.03;;
8317;SDS011;4196;48.926;8.964;2022-11-15T15:28:20;4.57;;;2.73;;
8317;SDS011;4196;48.926;8.964;2022-11-15T15:31:08;5.53;;;2.37;;
8317;SDS011;4196;48.926;8.964;2022-11-15T15:33:55;4.80;;;2.30;;
8317;SDS011;4196;48.926;8.964;2022-11-15T15:36:42;2.77;;;1.97;;
8317;SDS011;4196;48.926;8.964;2022-11-15T15:39:28;2.97;;;2.10;;
8317;SDS011;4196;48.926;8.964;2022-11-15T15:42:14;3.90;;;1.90;;
8317;SDS011;4196;48.926;8.964;2022-11-15T15:45:01;4.17;;;2.37;;
8317;SDS011;4196;48.926;8.964;2022-11-15T15:47:47;3.00;;;2.40;;
8317;SDS011;4196;48.926;8.964;2022-11-15T15:50:35;4.23;;;3.23;;
8317;SDS011;4196;48.926;8.964;2022-11-15T15:53:21;2.80;;;2.30;;
8317;SDS011;4196;48.926;8.964;2022-11-15T15:56:08;3.40;;;2.57;;
8317;SDS011;4196;48.926;8.964;2022-11-15T15:58:55;4.07;;;2.50;;
8317;SDS011;4196;48.926;8.964;2022-11-15T16:01:41;4.23;;;2.43;;
8317;SDS011;4196;48.926;8.964;2022-11-15T16:04:28;4.13;;;2.57;;
8317;SDS011;4196;48.926;8.964;2022-11-15T16:07:21;2.67;;;2.17;;
8317;SDS011;4196;48.926;8.964;2022-11-15T16:10:15;4.33;;;2.40;;
8317;SDS011;4196;48.926;8.964;2022-11-15T16:13:03;6.77;;;2.70;;
8317;SDS011;4196;48.926;8.964;2022-11-15T16:15:51;5.93;;;2.70;;
8317;SDS011;4196;48.926;8.964;2022-11-15T16:18:39;7.30;;;2.90;;
8317;SDS011;4196;48.926;8.964;2022-11-15T16:21:25;6.03;;;2.70;;
8317;SDS011;4196;48.926;8.964;2022-11-15T16:24:11;3.37;;;2.40;;
8317;SDS011;4196;48.926;8.964;2022-11-15T16:26:58;6.20;;;3.30;;
8317;SDS011;4196;48.926;8.964;2022-11-15T16:29:44;4.17;;;2.73;;
8317;SDS011;4196;48.926;8.964;2022-11-15T16:32:31;4.07;;;2.83;;
8317;SDS011;4196;48.926;8.964;2022-11-15T16:35:18;4.07;;;2.97;;
8317;SDS011;4196;48.926;8.964;2022-11-15T16:38:07;5.23;;;3.30;;
8317;SDS011;4196;48.926;8.964;2022-11-15T16:41:00;6.07;;;2.80;;
8317;SDS011;4196;48.926;8.964;2022-11-15T16:43:49;5.87;;;3.10;;
8317;SDS011;4196;48.926;8.964;2022-11-15T16:46:36;8.47;;;3.20;;
8317;SDS011;4196;48.926;8.964;2022-11-15T16:49:23;4.57;;;2.80;;
8317;SDS011;4196;48.926;8.964;2022-11-15T16:52:09;3.93;;;2.73;;
8317;SDS011;4196;48.926;8.964;2022-11-15T16:54:56;5.07;;;2.70;;
8317;SDS011;4196;48.926;8.964;2022-11-15T16:57:42;6.73;;;3.27;;
8317;SDS011;4196;48.926;8.964;2022-11-15T17:00:28;5.77;;;3.83;;
8317;SDS011;4196;48.926;8.964;2022-11-15T17:03:15;6.53;;;3.30;;
8317;SDS011;4196;48.926;8.964;2022-11-15T17:06:01;6.77;;;3.33;;
8317;SDS011;4196;48.926;8.964;2022-11-15T17:08:48;5.40;;;3.10;;
8317;SDS011;4196;48.926;8.964;2022-11-15T17:11:34;7.77;;;3.50;;
8317;SDS011;4196;48.926;8.964;2022-11-15T17:14:20;5.47;;;3.50;;
8317;SDS011;4196;48.926;8.964;2022-11-15T17:17:08;6.00;;;3.53;;
8317;SDS011;4196;48.926;8.964;2022-11-15T17:19:55;5.73;;;2.97;;
8317;SDS011;4196;48.926;8.964;2022-11-15T17:22:42;5.40;;;3.10;;
8317;SDS011;4196;48.926;8.964;2022-11-15T17:25:29;6.27;;;3.40;;
8317;SDS011;4196;48.926;8.964;2022-11-15T17:28:15;8.27;;;3.43;;
8317;SDS011;4196;48.926;8.964;2022-11-15T17:31:04;3.57;;;2.80;;
8317;SDS011;4196;48.926;8.964;2022-11-15T17:33:55;6.40;;;3.23;;
8317;SDS011;4196;48.926;8.964;2022-11-15T17:36:41;5.60;;;3.50;;
8317;SDS011;4196;48.926;8.964;2022-11-15T17:39:28;6.37;;;2.93;;
8317;SDS011;4196;48.926;8.964;2022-11-15T17:42:14;5.73;;;3.20;;
8317;SDS011;4196;48.926;8.964;2022-11-15T17:45:00;5.13;;;3.60;;
8317;SDS011;4196;48.926;8.964;2022-11-15T17:47:54;5.77;;;3.20;;
8317;SDS011;4196;48.926;8.964;2022-11-15T17:50:40;9.23;;;4.37;;
8317;SDS011;4196;48.926;8.964;2022-11-15T17:53:30;6.00;;;4.00;;
8317;SDS011;4196;48.926;8.964;2022-11-15T17:56:18;7.63;;;3.67;;
8317;SDS011;4196;48.926;8.964;2022-11-15T17:59:07;7.23;;;3.83;;
8317;SDS011;4196;48.926;8.964;2022-11-15T18:02:00;7.70;;;3.60;;
8317;SDS011;4196;48.926;8.964;2022-11-15T18:04:47;8.40;;;4.37;;
8317;SDS011;4196;48.926;8.964;2022-11-15T18:07:34;13.00;;;6.73;;
8317;SDS011;4196;48.926;8.964;2022-11-15T18:10:20;7.43;;;4.23;;
8317;SDS011;4196;48.926;8.964;2022-11-15T18:13:07;6.40;;;4.43;;
8317;SDS011;4196;48.926;8.964;2022-11-15T18:15:55;9.47;;;5.37;;
8317;SDS011;4196;48.926;8.964;2022-11-15T18:18:47;9.57;;;4.83;;
8317;SDS011;4196;48.926;8.964;2022-11-15T18:21:34;9.10;;;6.10;;
8317;SDS011;4196;48.926;8.964;2022-11-15T18:24:41;11.83;;;7.43;;
8317;SDS011;4196;48.926;8.964;2022-11-15T18:27:28;14.23;;;7.53;;
8317;SDS011;4196;48.926;8.964;2022-11-15T18:30:15;14.83;;;8.70;;
8317;SDS011;4196;48.926;8.964;2022-11-15T18:33:02;13.90;;;8.63;;
8317;SDS011;4196;48.926;8.964;2022-11-15T18:35:48;14.43;;;8.33;;
8317;SDS011;4196;48.926;8.964;2022-11-15T18:38:34;13.63;;;7.03;;
8317;SDS011;4196;48.926;8.964;2022-11-15T18:41:21;22.17;;;11.07;;
8317;SDS011;4196;48.926;8.964;2022-11-15T18:44:10;21.93;;;11.20;;
8317;SDS011;4196;48.926;8.964;2022-11-15T18:46:57;23.97;;;10.03;;
8317;SDS011;4196;48.926;8.964;2022-11-15T18:49:43;18.40;;;9.53;;
8317;SDS011;4196;48.926;8.964;2022-11-15T18:52:30;15.87;;;9.47;;
8317;SDS011;4196;48.926;8.964;2022-11-15T18:55:16;16.20;;;7.77;;
8317;SDS011;4196;48.926;8.964;2022-11-15T18:58:03;12.60;;;7.97;;
8317;SDS011;4196;48.926;8.964;2022-11-15T19:00:49;11.53;;;6.47;;
8317;SDS011;4196;48.926;8.964;2022-11-15T19:03:37;7.77;;;6.00;;
8317;SDS011;4196;48.926;8.964;2022-11-15T19:06:26;10.80;;;7.07;;
8317;SDS011;4196;48.926;8.964;2022-11-15T19:09:17;12.43;;;6.30;;
8317;SDS011;4196;48.926;8.964;2022-11-15T19:12:04;13.53;;;5.90;;
8317;SDS011;4196;48.926;8.964;2022-11-15T19:14:51;8.40;;;5.07;;
8317;SDS011;4196;48.926;8.964;2022-11-15T19:17:37;7.97;;;5.27;;
8317;SDS011;4196;48.926;8.964;2022-11-15T19:20:23;8.20;;;4.87;;
8317;SDS011;4196;48.926;8.964;2022-11-15T19:23:10;7.87;;;4.50;;
8317;SDS011;4196;48.926;8.964;2022-11-15T19:25:57;8.00;;;4.63;;
8317;SDS011;4196;48.926;8.964;2022-11-15T19:28:48;11.63;;;5.20;;
8317;SDS011;4196;48.926;8.964;2022-11-15T19:31:39;7.03;;;4.60;;
8317;SDS011;4196;48.926;8.964;2022-11-15T19:34:26;5.53;;;4.43;;
8317;SDS011;4196;48.926;8.964;2022-11-15T19:37:13;7.03;;;4.60;;
8317;SDS011;4196;48.926;8.964;2022-11-15T19:39:59;6.07;;;3.83;;
8317;SDS011;4196;48.926;8.964;2022-11-15T19:42:45;5.10;;;3.70;;
8317;SDS011;4196;48.926;8.964;2022-11-15T19:45:32;7.93;;;3.80;;
8317;SDS011;4196;48.926;8.964;2022-11-15T19:48:18;4.83;;;3.60;;
8317;SDS011;4196;48.926;8.964;2022-11-15T19:51:12;8.97;;;4.03;;
8317;SDS011;4196;48.926;8.964;2022-11-15T19:54:01;4.47;;;3.40;;
8317;SDS011;4196;48.926;8.964;2022-11-15T19:56:51;4.23;;;3.57;;
8317;SDS011;4196;48.926;8.964;2022-11-15T19:59:37;4.87;;;4.00;;
8317;SDS011;4196;48.926;8.964;2022-11-15T20:02:24;7.00;;;4.50;;
8317;SDS011;4196;48.926;8.964;2022-11-15T20:05:10;7.20;;;4.73;;
8317;SDS011;4196;48.926;8.964;2022-11-15T20:08:03;6.83;;;4.77;;
8317;SDS011;4196;48.926;8.964;2022-11-15T20:10:49;10.23;;;5.50;;
8317;SDS011;4196;48.926;8.964;2022-11-15T20:13:35;8.43;;;5.03;;
8317;SDS011;4196;48.926;8.964;2022-11-15T20:16:22;8.67;;;5.07;;
8317;SDS011;4196;48.926;8.964;2022-11-15T20:19:08;7.33;;;4.30;;
8317;SDS011;4196;48.926;8.964;2022-11-15T20:21:57;7.73;;;5.23;;